• Join FlightAware (Why Join?)
  • Login
  • US Flag 
12:20AM EST


 

Airport Tracker/Info


-or-


 

Live Flight TrackerFlight Track Log ✈ SKW5516 ✈ 08-Jun-2013 ✈ KFAT - KLAX

Flight Track Log - Related Links

Times and Time Zones

All times are in EDT time to prevent confusion due to time zone crossing. See the SKW5516 flight status page for this flight to view local times or setup timezone preferences in your user account.

Time Position Orientation Groundspeed Altitude Reporting Facility
EDT Latitude Longitude Course Direction KTS MPH feet Rate Location/Type
07:19PM 36.6072 -119.6375 159° South  Level Estimated
07:20PM 36.5508 -119.6106 159° South  Level Estimated
07:21PM 36.4943 -119.5837 159° South  Level Estimated
07:22PM 36.4379 -119.5568 159° South  Level Estimated
07:23PM 36.3815 -119.5299 159° South  Level Estimated
07:24PM 36.3250 -119.5031 159° South  Level Estimated
07:25PM 36.2686 -119.4764 159° South  Level Estimated
07:26PM 36.2121 -119.4497 159° South  Level Estimated
07:27PM 36.1556 -119.4230 159° South  Level Estimated
07:28PM 36.0992 -119.3963 159° South  Level Estimated
07:29PM 36.0427 -119.3697 159° South  Level Estimated
07:30PM 35.9862 -119.3431 159° South  Level Estimated
07:31PM 35.9297 -119.3166 159° South  Level Estimated
07:32PM 35.8732 -119.2901 159° South  Level Estimated
07:33PM 35.8167 -119.2637 159° South  Level Estimated
07:34PM 35.7602 -119.2373 159° South  Level Estimated
07:35PM 35.7037 -119.2109 159° South  Level Estimated
07:36PM 35.6472 -119.1845 159° South  Level Estimated
07:37PM 35.5907 -119.1582 159° South  Level Estimated
07:38PM 35.5341 -119.1320 159° South  Level Estimated
07:39PM 35.4776 -119.1057 159° South  Level Estimated
07:40PM 35.4211 -119.0795 159° South  Level Estimated
07:41PM 35.3645 -119.0534 159° South  Level Estimated
07:42PM 35.3080 -119.0273 159° South  Level Estimated
07:43PM 35.2514 -119.0012 159° South  Level Estimated
07:44PM 35.1948 -118.9751 159° South  Level Estimated
07:45PM 35.1383 -118.9491 159° South  Level Estimated
07:46PM 35.0817 -118.9231 159° South  Level Estimated
07:47PM 35.0251 -118.8972 159° South  Level Estimated
07:48PM 34.9685 -118.8713 159° South  Level Estimated
07:49PM 34.9119 -118.8454 159° South  Level Estimated
07:50PM 34.8554 -118.8196 159° South  Level Estimated
07:51PM 34.7988 -118.7938 159° South  Level Estimated
07:52PM 34.7421 -118.7680 159° South  Level Estimated
07:53PM 34.6855 -118.7423 160° South  Level Estimated
07:54PM 34.6289 -118.7166 160° South  Level Estimated
07:55PM 34.5723 -118.6909 160° South  Level Estimated
07:56PM 34.5157 -118.6653 160° South  Level Estimated
07:57PM 34.4590 -118.6397 160° South  Level Estimated
07:58PM 34.4024 -118.6142 160° South  Level Estimated
07:59PM 34.3457 -118.5887 160° South  Level Estimated
08:00PM 34.2891 -118.5632 160° South  Level Estimated
08:01PM 34.2324 -118.5377 160° South  Level Estimated
08:02PM 34.1758 -118.5123 160° South  Level Estimated
08:03PM 34.1191 -118.4870 160° South  Level Estimated
08:04PM 34.0625 -118.4616 160° South  Level Estimated
08:05PM 34.0058 -118.4363 160° South  Level Estimated
08:06PM 33.9491 -118.4110 160° South  Level Estimated
08:07PM 33.9425 -118.4081 160° South  Level Estimated
08:08PM 33.9425 -118.4081 164° South  Level Estimated
08:09PM 33.9425 -118.4081 164° South  Level Estimated